Time;durP1;ratioP1;P1;durP2;ratioP2;P2;SDS_P1;SDS_P2;PMS_P1;PMS_P2;Temp;Humidity;BMP_temperature;BMP_pressure;BME280_temperature;BME280_humidity;BME280_pressure;Samples;Min_cycle;Max_cycle;Signal;HPM_P1;HPM_P2
2023/08/17 00:01:42;;;;;;;2.58;1.70;;;;;;;;;;5047782;28;20029;-81
2023/08/17 00:04:08;;;;;;;4.53;1.67;;;;;;;;;;5030642;28;20025;-81
2023/08/17 00:06:34;;;;;;;1.88;1.27;;;;;;;;;;5032608;28;20056;-82
2023/08/17 00:09:00;;;;;;;1.75;1.38;;;;;;;;;;5049700;28;20029;-82
2023/08/17 00:11:26;;;;;;;2.03;1.20;;;;;;;;;;5036238;28;20452;-82
2023/08/17 00:13:52;;;;;;;2.33;1.67;;;;;;;;;;5050343;28;20043;-82
2023/08/17 00:16:18;;;;;;;3.88;1.45;;;;;;;;;;5049516;28;20305;-82
2023/08/17 00:18:44;;;;;;;2.28;1.58;;;;;;;;;;5049293;28;20481;-82
2023/08/17 00:21:10;;;;;;;3.17;1.42;;;;;;;;;;5046392;28;20060;-82
2023/08/17 00:23:36;;;;;;;2.15;1.35;;;;;;;;;;5035233;28;20025;-82
2023/08/17 00:26:02;;;;;;;1.73;1.08;;;;;;;;;;5039336;28;20406;-82
2023/08/17 00:28:28;;;;;;;2.72;1.48;;;;;;;;;;5040383;28;20071;-82
2023/08/17 00:30:54;;;;;;;2.50;1.30;;;;;;;;;;5045744;28;20033;-82
2023/08/17 00:33:20;;;;;;;5.28;1.45;;;;;;;;;;5049391;28;20056;-82
2023/08/17 00:35:46;;;;;;;2.00;1.23;;;;;;;;;;5040827;28;20520;-82
2023/08/17 00:38:12;;;;;;;1.77;1.55;;;;;;;;;;5049294;28;20486;-82
2023/08/17 00:40:38;;;;;;;2.30;1.60;;;;;;;;;;5048887;28;20021;-83
2023/08/17 00:43:05;;;;;;;2.90;1.70;;;20.90;98.30;;;;;;5048058;28;20029;-82
2023/08/17 00:45:31;;;;;;;2.58;1.90;;;20.90;98.60;;;;;;5048925;28;20033;-82
2023/08/17 00:47:58;;;;;;;3.42;1.90;;;21.00;98.60;;;;;;5047761;28;20025;-81
2023/08/17 00:50:24;;;;;;;1.90;1.40;;;;;;;;;;5045848;28;20110;-82
2023/08/17 00:52:52;;;;;;;2.60;1.38;;;21.00;98.50;;;;;;5024399;28;20571;-81
2023/08/17 00:55:18;;;;;;;1.48;1.38;;;;;;;;;;5028086;28;20577;-82
2023/08/17 00:57:44;;;;;;;4.93;1.63;;;;;;;;;;5039051;28;20025;-82
2023/08/17 01:00:14;;;;;;;2.38;1.50;;;21.20;97.80;;;;;;5037767;28;20128;-82
2023/08/17 01:02:41;;;;;;;2.50;1.73;;;21.10;97.60;;;;;;5040831;28;20021;-82
2023/08/17 01:05:07;;;;;;;;;;;21.00;98.40;;;;;;5029619;28;20034;-81
2023/08/17 01:07:33;;;;;;;2.05;1.25;;;;;;;;;;5061022;28;19909;-82
2023/08/17 01:09:59;;;;;;;2.35;1.55;;;;;;;;;;5028963;28;20017;-82
2023/08/17 01:12:26;;;;;;;2.20;1.48;;;;;;;;;;5029869;28;20021;-82
2023/08/17 01:14:58;;;;;;;3.65;1.10;;;20.80;98.70;;;;;;5023995;28;20034;-81
2023/08/17 01:17:52;;;;;;;2.53;1.33;;;20.90;98.90;;;;;;5022294;28;20083;-82
2023/08/17 01:20:19;;;;;;;2.28;1.38;;;20.90;98.80;;;;;;5028522;28;20023;-82
2023/08/17 01:22:48;;;;;;;2.45;1.52;;;20.90;98.60;;;;;;5048807;28;20489;-82
2023/08/17 01:25:14;;;;;;;1.85;1.13;;;;;;;;;;5043228;28;20446;-82
2023/08/17 01:27:43;;;;;;;2.05;1.13;;;20.60;97.90;;;;;;5029118;28;20021;-82
2023/08/17 01:30:12;;;;;;;2.78;1.30;;;20.90;99.90;;;;;;5028755;28;20032;-82
2023/08/17 01:32:50;;;;;;;2.97;1.67;;;20.30;99.80;;;;;;5028988;28;20088;-82
2023/08/17 01:35:40;;;;;;;3.25;1.92;;;20.40;99.90;;;;;;5028859;28;20033;-82
2023/08/17 01:38:10;;;;;;;2.53;1.55;;;20.40;99.90;;;;;;5029156;28;20043;-81
2023/08/17 01:40:36;;;;;;;7.20;2.05;;;;;;;;;;5029117;28;20033;-82
2023/08/17 01:43:02;;;;;;;4.60;1.80;;;;;;;;;;5028921;28;20469;-82
2023/08/17 01:45:29;;;;;;;3.83;1.33;;;;;;;;;;5028793;28;20291;-82
2023/08/17 01:47:58;;;;;;;3.72;1.27;;;;;;;;;;5028893;28;20025;-82
2023/08/17 01:50:24;;;;;;;3.78;2.30;;;;;;;;;;5028673;28;20511;-82
2023/08/17 01:52:52;;;;;;;3.38;1.85;;;20.40;99.90;;;;;;5045667;28;20028;-82
2023/08/17 01:55:18;;;;;;;2.33;1.50;;;;;;;;;;5047928;28;20581;-81
2023/08/17 01:57:44;;;;;;;2.35;1.45;;;;;;;;;;5028815;28;20400;-82
2023/08/17 02:00:10;;;;;;;1.33;1.15;;;;;;;;;;5030643;28;20100;-82
2023/08/17 02:02:37;;;;;;;1.85;1.40;;;;;;;;;;5041834;28;20101;-81
2023/08/17 02:05:03;;;;;;;2.63;1.73;;;;;;;;;;5038827;28;20083;-82
2023/08/17 02:07:29;;;;;;;3.47;1.90;;;;;;;;;;5033411;28;20029;-82
2023/08/17 02:09:55;;;;;;;2.60;1.67;;;;;;;;;;5032456;28;20112;-81
2023/08/17 02:12:21;;;;;;;4.03;1.98;;;;;;;;;;5032145;28;20401;-81
2023/08/17 02:14:47;;;;;;;5.25;1.55;;;;;;;;;;5032763;28;20033;-81
2023/08/17 02:17:16;;;;;;;2.95;1.70;;;;;;;;;;5036863;28;20730;-82
2023/08/17 02:19:42;;;;;;;4.15;1.73;;;;;;;;;;5052156;28;20029;-83
2023/08/17 02:22:08;;;;;;;1.85;1.30;;;;;;;;;;5050976;28;20017;-82
2023/08/17 02:24:34;;;;;;;4.13;1.38;;;;;;;;;;5052053;28;20043;-81
2023/08/17 02:27:00;;;;;;;2.70;1.90;;;;;;;;;;5038600;28;20086;-82
2023/08/17 02:29:26;;;;;;;2.53;2.08;;;;;;;;;;5051681;28;20025;-81
2023/08/17 02:31:52;;;;;;;4.07;1.55;;;;;;;;;;5043709;28;20436;-82
2023/08/17 02:34:18;;;;;;;4.50;2.03;;;;;;;;;;5050948;28;20126;-82
2023/08/17 02:36:44;;;;;;;1.65;1.33;;;;;;;;;;5050280;28;20025;-82
2023/08/17 02:39:10;;;;;;;2.30;1.45;;;;;;;;;;5051264;28;20029;-82
2023/08/17 02:41:36;;;;;;;3.75;1.30;;;;;;;;;;5050837;28;20032;-81
2023/08/17 02:44:02;;;;;;;4.72;1.33;;;;;;;;;;5052336;28;20492;-82
2023/08/17 02:46:28;;;;;;;1.83;1.40;;;;;;;;;;5051643;28;20055;-82
2023/08/17 02:48:54;;;;;;;3.65;1.50;;;;;;;;;;5039964;28;20100;-81
2023/08/17 02:51:20;;;;;;;3.90;1.45;;;;;;;;;;5049428;28;20507;-82
2023/08/17 02:53:46;;;;;;;2.20;1.23;;;;;;;;;;5052108;28;20394;-82
2023/08/17 02:56:12;;;;;;;2.38;1.45;;;;;;;;;;5050626;28;20059;-81
2023/08/17 02:58:42;;;;;;;1.88;1.35;;;;;;;;;;5051494;28;20104;-82
2023/08/17 03:01:08;;;;;;;3.03;1.73;;;;;;;;;;5033589;28;20022;-81
2023/08/17 03:03:34;;;;;;;2.42;1.30;;;;;;;;;;5031741;28;20568;-82
2023/08/17 03:06:00;;;;;;;2.15;1.77;;;;;;;;;;5034175;28;20056;-81
2023/08/17 03:08:26;;;;;;;3.13;2.08;;;;;;;;;;5031619;28;20031;-82
2023/08/17 03:10:52;;;;;;;2.30;1.38;;;;;;;;;;5031510;28;20562;-82
2023/08/17 03:13:18;;;;;;;2.63;1.60;;;;;;;;;;5031039;28;20039;-80
2023/08/17 03:15:44;;;;;;;1.77;1.45;;;;;;;;;;5031513;28;20041;-82
2023/08/17 03:18:10;;;;;;;2.20;1.52;;;;;;;;;;5030619;28;20057;-82
2023/08/17 03:20:36;;;;;;;4.15;1.55;;;;;;;;;;5031766;28;20040;-81
2023/08/17 03:23:06;;;;;;;3.00;1.92;;;;;;;;;;5031712;28;20032;-82
2023/08/17 03:25:32;;;;;;;3.53;1.80;;;;;;;;;;5031878;28;20092;-82
2023/08/17 03:27:57;;;;;;;2.92;2.03;;;;;;;;;;5031076;28;20022;-82
2023/08/17 03:30:23;;;;;;;3.47;1.80;;;;;;;;;;5047185;28;20033;-82
2023/08/17 03:32:50;;;;;;;2.45;1.52;;;;;;;;;;5031211;28;20597;-81
2023/08/17 03:35:16;;;;;;;3.22;1.45;;;;;;;;;;5031431;28;20465;-82
2023/08/17 03:37:42;;;;;;;2.53;1.60;;;;;;;;;;5031676;28;20033;-81
2023/08/17 03:40:08;;;;;;;2.33;1.70;;;20.70;99.90;;;;;;5031389;28;20609;-82
2023/08/17 03:42:34;;;;;;;1.75;1.45;;;;;;;;;;5031181;28;20041;-82
2023/08/17 03:45:00;;;;;;;2.80;1.67;;;;;;;;;;5046795;28;20502;-82
2023/08/17 03:47:26;;;;;;;2.88;1.50;;;;;;;;;;5031526;28;20029;-82
2023/08/17 03:49:52;;;;;;;1.67;1.42;;;;;;;;;;5047215;28;20049;-81
2023/08/17 03:52:18;;;;;;;3.60;1.48;;;;;;;;;;5031398;28;20025;-81
2023/08/17 03:54:44;;;;;;;3.50;1.67;;;;;;;;;;5032449;28;20103;-81
2023/08/17 03:57:10;;;;;;;7.88;1.63;;;;;;;;;;5031459;28;20493;-82
2023/08/17 03:59:36;;;;;;;3.15;1.52;;;;;;;;;;5029990;28;20037;-81
2023/08/17 04:02:02;;;;;;;3.80;2.00;;;;;;;;;;5042938;28;20032;-81
2023/08/17 04:04:28;;;;;;;4.38;2.83;;;;;;;;;;5049078;28;20996;-82
2023/08/17 04:06:54;;;;;;;3.85;1.70;;;;;;;;;;5049992;28;20029;-82
2023/08/17 04:09:20;;;;;;;3.85;1.55;;;;;;;;;;5049113;28;20025;-82
2023/08/17 04:11:46;;;;;;;4.43;1.70;;;;;;;;;;5048814;28;20375;-83
2023/08/17 04:14:13;;;;;;;3.03;2.33;;;;;;;;;;5049428;28;20063;-81
2023/08/17 04:16:39;;;;;;;2.35;1.48;;;;;;;;;;5050399;28;20451;-82
2023/08/17 04:19:06;;;;;;;2.03;1.52;;;;;;;;;;5037302;28;20397;-81
2023/08/17 04:21:32;;;;;;;4.45;2.00;;;;;;;;;;5049797;28;20033;-81
2023/08/17 04:23:58;;;;;;;3.35;2.05;;;;;;;;;;5034694;28;20029;-81
2023/08/17 04:26:24;;;;;;;3.03;2.50;;;;;;;;;;5037305;28;20075;-81
2023/08/17 04:28:50;;;;;;;4.35;2.55;;;;;;;;;;5048370;28;20096;-82
2023/08/17 04:31:17;;;;;;;7.95;1.63;;;;;;;;;;5049324;28;20028;-82
2023/08/17 04:33:43;;;;;;;2.22;1.50;;;;;;;;;;5046284;28;20049;-82
2023/08/17 04:36:09;;;;;;;4.40;1.55;;;;;;;;;;5041987;28;20040;-81
2023/08/17 04:38:35;;;;;;;4.85;1.80;;;;;;;;;;5047946;28;20067;-81
2023/08/17 04:41:01;;;;;;;3.05;1.48;;;;;;;;;;5048047;28;20528;-81
2023/08/17 04:43:27;;;;;;;3.65;1.30;;;;;;;;;;5036147;28;20636;-81
2023/08/17 04:45:53;;;;;;;3.05;1.60;;;;;;;;;;5047726;28;20021;-82
2023/08/17 04:48:19;;;;;;;1.58;1.20;;;;;;;;;;5063072;28;20029;-81
2023/08/17 04:50:45;;;;;;;4.50;1.95;;;;;;;;;;5048195;28;20025;-82
2023/08/17 04:53:11;;;;;;;9.63;1.73;;;;;;;;;;5023345;28;20110;-82
2023/08/17 04:55:37;;;;;;;2.90;1.52;;;;;;;;;;5046616;28;20055;-82
2023/08/17 04:58:03;;;;;;;2.58;2.03;;;;;;;;;;5047914;28;20040;-81
2023/08/17 05:00:30;;;;;;;2.65;1.80;;;;;;;;;;5045488;28;20029;-81
2023/08/17 05:02:56;;;;;;;2.25;1.67;;;;;;;;;;5048218;28;20113;-82
2023/08/17 05:05:22;;;;;;;2.67;1.70;;;;;;;;;;5048829;28;20625;-81
2023/08/17 05:07:48;;;;;;;4.03;1.90;;;;;;;;;;5048603;28;20028;-81
2023/08/17 05:10:15;;;;;;;3.28;1.77;;;;;;;;;;5048714;28;20025;-81
2023/08/17 05:12:41;;;;;;;3.35;2.10;;;;;;;;;;5048591;28;20080;-82
2023/08/17 05:15:07;;;;;;;2.90;1.95;;;;;;;;;;5048324;28;20049;-81
2023/08/17 05:17:33;;;;;;;2.40;2.15;;;;;;;;;;5047551;28;20029;-82
2023/08/17 05:19:59;;;;;;;3.15;1.77;;;;;;;;;;5046547;28;20040;-82
2023/08/17 05:22:25;;;;;;;3.45;1.92;;;;;;;;;;5047190;28;20017;-82
2023/08/17 05:24:51;;;;;;;2.88;2.13;;;;;;;;;;5047986;28;20110;-81
2023/08/17 05:27:17;;;;;;;3.63;2.05;;;;;;;;;;5035002;28;20440;-82
2023/08/17 05:29:43;;;;;;;2.92;1.60;;;;;;;;;;5047589;28;20029;-82
2023/08/17 05:32:09;;;;;;;3.20;1.90;;;;;;;;;;5046808;28;20021;-83
2023/08/17 05:34:35;;;;;;;6.38;2.45;;;;;;;;;;5042672;28;20143;-81
2023/08/17 05:37:01;;;;;;;3.28;1.95;;;;;;;;;;5023881;28;20018;-82
2023/08/17 05:39:27;;;;;;;4.18;2.47;;;;;;;;;;5039209;28;20036;-82
2023/08/17 05:41:53;;;;;;;4.63;2.15;;;;;;;;;;5044657;28;20029;-82
2023/08/17 05:44:19;;;;;;;3.63;2.20;;;;;;;;;;5034265;28;20049;-82
2023/08/17 05:46:45;;;;;;;3.92;2.33;;;;;;;;;;5045505;28;20021;-82
2023/08/17 05:49:11;;;;;;;3.53;2.08;;;;;;;;;;5044030;28;20490;-82
2023/08/17 05:51:37;;;;;;;3.33;2.10;;;;;;;;;;5042341;28;20078;-82
2023/08/17 05:54:03;;;;;;;6.38;2.22;;;;;;;;;;5042574;28;20037;-82
2023/08/17 05:56:29;;;;;;;9.70;2.85;;;;;;;;;;5042409;28;20051;-81
2023/08/17 05:58:55;;;;;;;5.75;2.42;;;;;;;;;;5043618;28;20072;-81
2023/08/17 06:01:21;;;;;;;4.38;2.15;;;;;;;;;;5042427;28;20494;-82
2023/08/17 06:03:47;;;;;;;8.73;2.00;;;;;;;;;;5027036;28;20026;-81
2023/08/17 06:06:13;;;;;;;3.78;2.10;;;;;;;;;;5027132;28;20040;-81
2023/08/17 06:08:39;;;;;;;2.88;1.90;;;;;;;;;;5026852;28;20026;-80
2023/08/17 06:11:05;;;;;;;4.40;2.13;;;;;;;;;;5027455;28;20418;-81
2023/08/17 06:13:31;;;;;;;6.47;2.00;;;;;;;;;;5028605;28;20029;-81
2023/08/17 06:15:57;;;;;;;3.17;1.88;;;;;;;;;;5028185;28;20581;-81
2023/08/17 06:18:23;;;;;;;4.60;1.83;;;;;;;;;;5040372;28;20111;-81
2023/08/17 06:20:53;;;;;;;4.28;2.47;;;;;;;;;;5037749;28;20460;-81
2023/08/17 06:23:19;;;;;;;5.28;2.30;;;;;;;;;;5039820;28;20126;-81
2023/08/17 06:25:45;;;;;;;3.30;2.50;;;;;;;;;;5039625;28;20217;-81
2023/08/17 06:28:11;;;;;;;4.28;2.08;;;;;;;;;;5040129;28;20169;-81
2023/08/17 06:30:37;;;;;;;2.08;1.85;;;;;;;;;;5038404;28;20044;-81
2023/08/17 06:33:04;;;;;;;4.68;2.20;;;;;;;;;;5039782;28;20068;-82
2023/08/17 06:35:30;;;;;;;4.22;2.67;;;;;;;;;;5028963;28;20108;-89
2023/08/17 06:37:57;;;;;;;7.32;2.30;;;;;;;;;;5025025;28;20030;-88
2023/08/17 06:40:24;;;;;;;9.75;2.70;;;;;;;;;;5043003;28;20037;-82
2023/08/17 06:42:50;;;;;;;7.57;2.55;;;;;;;;;;5043149;28;20518;-86
2023/08/17 06:45:19;;;;;;;5.82;2.22;;;;;;;;;;5041567;28;20460;-87
2023/08/17 06:47:48;;;;;;;4.90;2.70;;;22.40;96.10;;;;;;5043772;28;20025;-87
2023/08/17 06:50:14;;;;;;;2.70;2.00;;;;;;;;;;5020494;28;20550;-87
2023/08/17 06:52:40;;;;;;;8.52;2.42;;;;;;;;;;5033534;28;20025;-87
2023/08/17 06:55:06;;;;;;;4.75;3.15;;;;;;;;;;5053136;28;20041;-87
2023/08/17 06:57:32;;;;;;;3.65;1.75;;;;;;;;;;5035951;28;20449;-88
2023/08/17 06:59:58;;;;;;;7.55;2.78;;;;;;;;;;5037570;28;20083;-88
2023/08/17 07:02:24;;;;;;;2.35;2.08;;;;;;;;;;5042765;28;20055;-85
2023/08/17 07:04:50;;;;;;;7.88;1.77;;;;;;;;;;5033809;28;20033;-84
2023/08/17 07:07:16;;;;;;;5.63;2.60;;;;;;;;;;5052307;28;20029;-84
2023/08/17 07:09:42;;;;;;;9.68;2.15;;;;;;;;;;5032375;28;20029;-85
2023/08/17 07:12:08;;;;;;;4.97;2.08;;;;;;;;;;5037130;28;20095;-85
2023/08/17 07:14:34;;;;;;;4.93;2.28;;;;;;;;;;5034599;28;20120;-89
2023/08/17 07:17:00;;;;;;;2.20;1.73;;;;;;;;;;5040772;28;20112;-87
2023/08/17 07:19:26;;;;;;;3.75;2.28;;;;;;;;;;5035773;28;20029;-86
2023/08/17 07:21:53;;;;;;;3.78;1.90;;;;;;;;;;5044904;28;20688;-87
2023/08/17 07:24:19;;;;;;;6.50;1.80;;;28.90;66.50;;;;;;5063426;28;20028;-86
2023/08/17 07:26:46;;;;;;;5.03;2.30;;;;;;;;;;5045869;28;20116;-89
2023/08/17 07:29:11;;;;;;;6.03;2.27;;;36.80;58.80;;;;;;5038821;28;20021;-89
2023/08/17 07:31:38;;;;;;;3.20;1.47;;;38.90;46.70;;;;;;5036837;28;20037;-85
2023/08/17 07:34:07;;;;;;;8.32;2.20;;;39.80;45.30;;;;;;5037877;28;20087;-85
2023/08/17 07:36:33;;;;;;;6.22;2.10;;;;;;;;;;5041424;28;20142;-85
2023/08/17 07:39:00;;;;;;;2.88;1.60;;;;;;;;;;5033351;28;20024;-84
2023/08/17 07:41:25;;;;;;;;;;;46.30;37.40;;;;;;5038746;28;20389;-85
2023/08/17 07:43:52;;;;;;;3.80;1.08;;;;;;;;;;5070853;28;19920;-83
2023/08/17 07:46:18;;;;;;;2.00;1.38;;;;;;;;;;5032521;28;20030;-87
2023/08/17 07:48:44;;;;;;;;;;;46.60;35.20;;;;;;5036554;28;20037;-89
2023/08/17 07:51:10;;;;;;;1.85;1.35;;;;;;;;;;5051859;28;19905;-88
2023/08/17 07:53:36;;;;;;;2.60;1.20;;;;;;;;;;5033448;28;20029;-86
2023/08/17 07:56:02;;;;;;;2.92;1.38;;;;;;;;;;5036129;28;20510;-84
2023/08/17 07:58:28;;;;;;;1.95;1.50;;;;;;;;;;5032495;28;20034;-84
2023/08/17 08:00:54;;;;;;;2.92;1.73;;;;;;;;;;5033991;28;20032;-84
2023/08/17 08:03:20;;;;;;;1.50;1.20;;;;;;;;;;5047215;28;20020;-83
2023/08/17 08:05:46;;;;;;;3.38;1.35;;;;;;;;;;5033957;28;20433;-84
2023/08/17 08:08:14;;;;;;;2.45;1.33;;;;;;;;;;5038814;28;20064;-83
2023/08/17 08:10:40;;;;;;;2.10;1.40;;;;;;;;;;5037902;28;20072;-85
2023/08/17 08:13:06;;;;;;;2.45;1.75;;;;;;;;;;5054195;28;20032;-83
2023/08/17 08:15:33;;;;;;;3.58;1.40;;;54.20;26.20;;;;;;5044962;28;20557;-87
2023/08/17 08:17:59;;;;;;;2.05;1.60;;;;;;;;;;5035715;28;20017;-87
2023/08/17 08:20:25;;;;;;;2.33;1.50;;;;;;;;;;5040803;28;20079;-85
2023/08/17 08:22:51;;;;;;;4.90;2.00;;;;;;;;;;5032981;28;20064;-88
2023/08/17 08:25:17;;;;;;;1.40;1.30;;;;;;;;;;5030618;28;20033;-89
2023/08/17 08:27:43;;;;;;;4.93;1.35;;;;;;;;;;5027734;28;20482;-82
2023/08/17 08:30:09;;;;;;;1.92;1.65;;;;;;;;;;5031754;28;20104;-82
2023/08/17 08:32:35;;;;;;;1.70;1.52;;;;;;;;;;5029838;28;20071;-83
2023/08/17 08:35:02;;;;;;;2.17;1.50;;;56.40;24.50;;;;;;5030672;28;20037;-82
2023/08/17 08:37:28;;;;;;;4.75;2.40;;;;;;;;;;5035041;28;20033;-83
2023/08/17 08:39:55;;;;;;;3.28;1.65;;;55.50;23.90;;;;;;5039396;28;20541;-83
2023/08/17 08:42:21;;;;;;;4.20;1.50;;;55.90;23.90;;;;;;5038357;28;20136;-82
2023/08/17 08:44:49;;;;;;;1.58;1.20;;;56.10;27.70;;;;;;5038516;28;20049;-84
2023/08/17 08:47:16;;;;;;;4.07;1.63;;;56.40;23.40;;;;;;5031943;28;20032;-83
2023/08/17 08:49:57;;;;;;;1.70;1.60;;;57.20;23.60;;;;;;5038469;28;20487;-83
2023/08/17 08:52:26;;;;;;;1.40;1.30;;;56.80;23.10;;;;;;5042324;28;20025;-82
2023/08/17 08:54:54;;;;;;;1.67;1.48;;;56.70;23.30;;;;;;5037556;28;20037;-88
2023/08/17 08:57:21;;;;;;;2.80;1.50;;;57.00;27.20;;;;;;5041124;28;20053;-79
2023/08/17 08:59:47;;;;;;;2.20;1.55;;;58.00;24.40;;;;;;5037114;28;20030;-88
2023/08/17 09:02:16;;;;;;;2.90;1.98;;;59.40;24.80;;;;;;5040239;28;20021;-87
2023/08/17 09:04:45;;;;;;;3.95;1.38;;;59.00;22.60;;;;;;5037004;28;20051;-86
2023/08/17 09:07:16;;;;;;;2.08;1.40;;;56.50;24.70;;;;;;5038236;28;20086;-90
2023/08/17 09:09:43;;;;;;;2.35;1.30;;;;;;;;;;5043354;28;20029;-88
2023/08/17 09:12:09;;;;;;;8.45;1.52;;;56.40;23.10;;;;;;5029288;28;20029;-87
2023/08/17 09:14:37;;;;;;;5.03;1.30;;;57.90;22.80;;;;;;5034053;28;20041;-86
2023/08/17 09:17:03;;;;;;;2.17;1.60;;;;;;;;;;5040582;28;20553;-89
2023/08/17 09:19:29;;;;;;;3.17;1.55;;;;;;;;;;5057089;28;20047;-87
2023/08/17 09:21:55;;;;;;;1.70;1.60;;;;;;;;;;5039334;28;20029;-92
2023/08/17 09:24:21;;;;;;;1.63;1.30;;;;;;;;;;5046302;28;20101;-89
2023/08/17 09:26:49;;;;;;;3.03;1.50;;;62.00;22.00;;;;;;5045618;28;20485;-93
2023/08/17 09:29:19;;;;;;;2.15;1.38;;;62.20;21.90;;;;;;5044109;28;20021;-87
2023/08/17 09:31:46;;;;;;;1.67;1.55;;;62.80;21.90;;;;;;5039129;28;20029;-87
2023/08/17 09:34:14;;;;;;;2.42;2.00;;;63.40;21.40;;;;;;5043638;28;20571;-87
2023/08/17 09:36:42;;;;;;;1.42;1.15;;;;;;;;;;5040358;28;20476;-86
2023/08/17 09:39:08;;;;;;;3.50;1.42;;;58.30;27.10;;;;;;5043731;28;20490;-86
2023/08/17 09:41:41;;;;;;;4.15;1.17;;;55.40;22.80;;;;;;5040342;28;20040;-84
2023/08/17 09:44:07;;;;;;;3.03;1.13;;;;;;;;;;5044065;28;20017;-84
2023/08/17 09:46:33;;;;;;;2.15;1.02;;;;;;;;;;5036368;28;20025;-85
2023/08/17 09:48:59;;;;;;;1.50;1.05;;;;;;;;;;5040936;28;20039;-84
2023/08/17 09:51:25;;;;;;;1.70;1.30;;;;;;;;;;5035916;28;20021;-84
2023/08/17 09:53:55;;;;;;;3.78;1.20;;;;;;;;;;5040998;28;20056;-83
2023/08/17 09:56:23;;;;;;;3.67;1.05;;;41.10;29.50;;;;;;5035891;28;20116;-85
2023/08/17 09:58:49;;;;;;;1.85;1.05;;;;;;;;;;5041555;28;20035;-85
2023/08/17 10:01:15;;;;;;;3.95;1.42;;;43.10;29.00;;;;;;5028507;28;20088;-87
2023/08/17 10:03:45;;;;;;;3.25;1.08;;;47.50;32.10;;;;;;5060962;28;20045;-87
2023/08/17 10:06:15;;;;;;;7.78;1.20;;;53.10;25.30;;;;;;5029035;28;20435;-87
2023/08/17 10:08:48;;;;;;;2.40;1.40;;;56.70;23.40;;;;;;5029199;28;20148;-85
2023/08/17 10:11:19;;;;;;;2.17;1.58;;;58.80;22.90;;;;;;5048095;28;20025;-86
2023/08/17 10:13:45;;;;;;;4.30;1.30;;;;;;;;;;5061708;28;20402;-86
2023/08/17 10:16:11;;;;;;;2.35;1.08;;;;;;;;;;5045352;28;20043;-87
2023/08/17 10:19:04;;;;;;;8.00;1.55;;;61.30;22.80;;;;;;5046938;28;20029;-86
2023/08/17 10:21:37;;;;;;;;;;;61.40;22.30;;;;;;5046216;28;20076;-83
2023/08/17 10:24:04;;;;;;;2.73;1.17;;;61.50;25.80;;;;;;5015046;28;19908;-85
2023/08/17 10:26:31;;;;;;;1.88;1.20;;;;;;;;;;5026982;28;20112;-85
2023/08/17 10:28:59;;;;;;;3.58;1.00;;;59.30;23.10;;;;;;5033960;28;20029;-85
2023/08/17 10:31:26;;;;;;;5.95;1.20;;;;;;;;;;5030235;28;20139;-85
2023/08/17 10:33:52;;;;;;;1.52;1.20;;;;;;;;;;5032429;28;20056;-87
2023/08/17 10:36:19;;;;;;;5.13;1.27;;;58.90;22.20;;;;;;5031365;28;20545;-86
2023/08/17 10:38:45;;;;;;;2.28;1.30;;;;;;;;;;5032772;28;20567;-87
2023/08/17 10:41:12;;;;;;;3.63;1.30;;;61.60;20.50;;;;;;5048126;28;20087;-86
2023/08/17 10:43:57;;;;;;;4.10;1.13;;;62.00;22.70;;;;;;5040513;28;20117;-86
2023/08/17 10:46:33;;;;;;;1.58;1.10;;;61.80;21.30;;;;;;5042297;28;20030;-87
2023/08/17 10:49:04;;;;;;;1.60;1.30;;;61.40;22.10;;;;;;5045492;28;20048;-87
2023/08/17 10:51:30;;;;;;;2.92;1.55;;;;;;;;;;5033558;28;20029;-87
2023/08/17 10:53:59;;;;;;;2.50;1.10;;;60.90;19.50;;;;;;5039262;28;20095;-87
2023/08/17 10:56:27;;;;;;;3.67;1.20;;;60.10;19.60;;;;;;5031481;28;20038;-87
2023/08/17 10:58:53;;;;;;;2.15;0.98;;;60.00;24.20;;;;;;5041143;28;20070;-87
2023/08/17 11:01:45;;;;;;;1.83;0.93;;;59.10;23.10;;;;;;5032592;28;20030;-87
2023/08/17 11:04:17;;;;;;;3.83;1.88;;;59.00;19.20;;;;;;5032918;28;20029;-89
2023/08/17 11:06:44;;;;;;;1.88;0.93;;;58.40;19.30;;;;;;5033952;28;20029;-86
2023/08/17 11:09:11;;;;;;;1.55;1.08;;;;;;;;;;5036500;28;20026;-89
2023/08/17 11:11:37;;;;;;;2.53;1.00;;;58.10;23.70;;;;;;5034960;28;20032;-87
2023/08/17 11:14:03;;;;;;;3.72;1.17;;;;;;;;;;5036492;28;20017;-88
2023/08/17 11:16:29;;;;;;;1.38;0.70;;;;;;;;;;5031496;28;20038;-85
2023/08/17 11:18:58;;;;;;;1.90;0.95;;;;;;;;;;5032523;28;20393;-86
2023/08/17 11:21:24;;;;;;;4.30;0.85;;;;;;;;;;5032235;28;20116;-87
2023/08/17 11:23:50;;;;;;;2.42;0.90;;;;;;;;;;5034093;28;20132;-87
2023/08/17 11:26:17;;;;;;;1.70;0.60;;;57.90;19.00;;;;;;5047680;28;20029;-87
2023/08/17 11:28:44;;;;;;;1.85;0.70;;;57.10;18.50;;;;;;5034463;28;20083;-88
2023/08/17 11:31:11;;;;;;;1.08;0.70;;;56.60;18.80;;;;;;5033725;28;20391;-86
2023/08/17 11:33:39;;;;;;;1.15;0.70;;;56.00;18.80;;;;;;5033594;28;20099;-87
2023/08/17 11:36:06;;;;;;;2.63;0.70;;;56.10;22.90;;;;;;5034245;28;20037;-87
2023/08/17 11:38:40;;;;;;;1.30;0.70;;;55.20;18.60;;;;;;5034262;28;20087;-86
2023/08/17 11:41:10;;;;;;;6.40;0.90;;;;;;;;;;5032919;28;20055;-87
2023/08/17 11:43:36;;;;;;;2.35;0.70;;;;;;;;;;5045332;28;20044;-86
2023/08/17 11:46:03;;;;;;;3.70;0.70;;;;;;;;;;5033827;28;20025;-87
2023/08/17 11:48:30;;;;;;;1.15;0.60;;;53.60;19.20;;;;;;5032709;28;20539;-86
2023/08/17 11:50:56;;;;;;;2.33;0.93;;;;;;;;;;5034901;28;20108;-86
2023/08/17 11:53:22;;;;;;;1.40;0.70;;;;;;;;;;5047275;28;20022;-86
2023/08/17 11:55:49;;;;;;;2.58;0.80;;;;;;;;;;5032676;28;20038;-87
2023/08/17 11:58:15;;;;;;;2.40;0.95;;;;;;;;;;5032237;28;20021;-87
2023/08/17 12:00:44;;;;;;;5.40;1.10;;;50.30;19.80;;;;;;5032086;28;20108;-86
2023/08/17 12:03:16;;;;;;;1.52;1.10;;;48.50;20.40;;;;;;5030213;28;20041;-85
2023/08/17 12:05:42;;;;;;;1.80;0.80;;;;;;;;;;5028766;28;20033;-86
2023/08/17 12:08:08;;;;;;;1.17;0.65;;;;;;;;;;5029943;28;20022;-86
2023/08/17 12:10:34;;;;;;;7.15;2.28;;;;;;;;;;5030414;28;20511;-88
2023/08/17 12:13:00;;;;;;;;;;;43.70;22.50;;;;;;5034149;28;20573;-88
2023/08/17 12:15:34;;;;;;;5.10;1.50;;;42.30;23.00;;;;;;5040880;28;19924;-87
2023/08/17 12:18:04;;;;;;;5.50;1.00;;;41.30;23.40;;;;;;5037818;28;20031;-84
2023/08/17 12:20:32;;;;;;;6.53;1.10;;;40.80;24.00;;;;;;5040438;28;20033;-82
2023/08/17 12:22:58;;;;;;;2.28;0.98;;;40.00;24.30;;;;;;5026523;28;20031;-86
2023/08/17 12:25:25;;;;;;;2.80;0.93;;;39.70;24.70;;;;;;5041522;28;20021;-89
2023/08/17 12:27:51;;;;;;;2.00;1.00;;;;;;;;;;5047223;28;20398;-87
2023/08/17 12:30:26;;;;;;;2.55;1.23;;;39.50;30.10;;;;;;5043061;28;20390;-87
2023/08/17 12:32:52;;;;;;;4.68;1.30;;;;;;;;;;5046143;28;20120;-87
2023/08/17 12:35:21;;;;;;;4.28;1.13;;;;;;;;;;5042838;28;20609;-87
2023/08/17 12:37:47;;;;;;;2.47;0.77;;;;;;;;;;5040894;28;20029;-87
2023/08/17 12:40:13;;;;;;;1.98;1.20;;;;;;;;;;5032138;28;20517;-87
2023/08/17 12:42:39;;;;;;;6.18;0.80;;;;;;;;;;5044875;28;20071;-86
2023/08/17 12:45:05;;;;;;;2.63;0.93;;;37.80;36.40;;;;;;5040488;28;20049;-87
2023/08/17 12:47:31;;;;;;;3.47;1.05;;;;;;;;;;5044928;28;20033;-88
2023/08/17 12:49:57;;;;;;;1.50;0.77;;;;;;;;;;5039606;28;20022;-87
2023/08/17 12:52:23;;;;;;;2.65;1.40;;;36.90;26.80;;;;;;5037355;28;20040;-82
2023/08/17 12:54:49;;;;;;;1.50;1.27;;;;;;;;;;5040228;28;20453;-82
2023/08/17 12:57:15;;;;;;;4.43;1.40;;;;;;;;;;5044011;28;20108;-81
2023/08/17 12:59:41;;;;;;;3.03;1.42;;;;;;;;;;5038190;28;20033;-86
2023/08/17 13:02:07;;;;;;;1.45;0.85;;;37.30;36.50;;;;;;5041940;28;20057;-87
2023/08/17 13:04:33;;;;;;;1.53;0.83;;;;;;;;;;5042190;28;20123;-87
2023/08/17 13:06:58;;;;;;;3.42;0.80;;;;;;;;;;5041432;28;20032;-85
2023/08/17 13:09:25;;;;;;;4.10;1.70;;;;;;;;;;5029328;28;20044;-85
2023/08/17 13:11:50;;;;;;;4.93;1.17;;;;;;;;;;5031708;28;20048;-87
2023/08/17 13:14:16;;;;;;;2.20;0.98;;;;;;;;;;5030738;28;20014;-85
2023/08/17 13:16:43;;;;;;;3.30;0.70;;;;;;;;;;5044947;28;20601;-85
2023/08/17 13:19:09;;;;;;;3.03;1.08;;;;;;;;;;5041611;28;20017;-86
2023/08/17 13:21:35;;;;;;;3.85;1.30;;;;;;;;;;5045347;28;20492;-86
2023/08/17 13:24:03;;;;;;;2.28;0.75;;;;;;;;;;5042080;28;20029;-86
2023/08/17 13:26:29;;;;;;;2.33;0.70;;;;;;;;;;5045440;28;20044;-86
2023/08/17 13:28:55;;;;;;;1.55;0.80;;;;;;;;;;5041051;28;20044;-86
2023/08/17 13:31:21;;;;;;;3.67;1.30;;;;;;;;;;5044200;28;20528;-85
2023/08/17 13:33:47;;;;;;;2.08;1.00;;;;;;;;;;5041208;28;20065;-87
2023/08/17 13:36:13;;;;;;;3.88;1.10;;;;;;;;;;5044106;28;20576;-86
2023/08/17 13:38:39;;;;;;;2.33;1.08;;;;;;;;;;5041621;28;20031;-86
2023/08/17 13:41:05;;;;;;;4.45;0.82;;;;;;;;;;5044803;28;20391;-87
2023/08/17 13:43:31;;;;;;;4.70;0.90;;;;;;;;;;5037994;28;20808;-82
2023/08/17 13:45:57;;;;;;;1.75;0.82;;;;;;;;;;5040826;28;20029;-83
2023/08/17 13:48:23;;;;;;;1.85;0.88;;;;;;;;;;5049389;28;20029;-83
2023/08/17 13:50:49;;;;;;;4.60;1.35;;;36.30;30.50;;;;;;5030233;28;20087;-85
2023/08/17 13:53:15;;;;;;;1.27;1.17;;;;;;;;;;5034931;28;20507;-84
2023/08/17 13:55:41;;;;;;;4.47;2.10;;;;;;;;;;5040814;28;20123;-85
2023/08/17 13:58:09;;;;;;;3.10;0.82;;;;;;;;;;5026897;28;20025;-84
2023/08/17 14:00:36;;;;;;;1.63;0.93;;;35.70;29.70;;;;;;5049645;28;20037;-85
2023/08/17 14:03:02;;;;;;;1.50;1.02;;;;;;;;;;5049605;28;20025;-84
2023/08/17 14:05:28;;;;;;;3.30;0.93;;;;;;;;;;5038534;28;20148;-86
2023/08/17 14:07:54;;;;;;;2.42;1.02;;;;;;;;;;5045032;28;20562;-86
2023/08/17 14:10:21;;;;;;;1.10;0.70;;;;;;;;;;5032063;28;20033;-86